createdAt,value
2018-09-24T00:02:16.602Z,101752.83
2018-09-24T00:04:45.082Z,101757.39
2018-09-24T00:07:13.591Z,101760.94
2018-09-24T00:09:42.071Z,101771.37
2018-09-24T00:12:10.562Z,101770.09
2018-09-24T00:14:39.887Z,101775.38
2018-09-24T00:17:09.166Z,101771.74
2018-09-24T00:19:37.692Z,101780.86
2018-09-24T00:22:06.497Z,101777.44
2018-09-24T00:24:34.976Z,101785.57
2018-09-24T00:27:03.506Z,101787.69
2018-09-24T00:29:32.049Z,101791.16
2018-09-24T00:32:00.553Z,101790.95
2018-09-24T00:34:29.794Z,101799.66
2018-09-24T00:36:58.286Z,101816.70
2018-09-24T00:39:26.785Z,101816.61
2018-09-24T00:41:55.341Z,101829.95
2018-09-24T00:44:24.945Z,101835.09
2018-09-24T00:46:53.479Z,101839.42
2018-09-24T00:49:21.994Z,101845.59
2018-09-24T00:51:51.117Z,101849.86
2018-09-24T00:54:19.713Z,101847.31
2018-09-24T00:56:48.750Z,101847.55
2018-09-24T00:59:17.238Z,101856.13
2018-09-24T01:01:46.314Z,101859.19
2018-09-24T01:04:14.851Z,101867.19
2018-09-24T01:06:44.175Z,101862.66
2018-09-24T01:09:13.080Z,101867.85
2018-09-24T01:11:42.193Z,101876.38
2018-09-24T01:14:10.850Z,101874.41
2018-09-24T01:16:39.622Z,101869.00
2018-09-24T01:19:08.201Z,101885.19
2018-09-24T01:21:36.994Z,101894.55
2018-09-24T01:24:05.553Z,101893.97
2018-09-24T01:26:34.040Z,101884.92
2018-09-24T01:29:02.550Z,101897.20
2018-09-24T01:31:31.113Z,101903.86
2018-09-24T01:33:59.673Z,101912.33
2018-09-24T01:36:28.203Z,101914.24
2018-09-24T01:38:56.774Z,101915.81
2018-09-24T01:41:25.289Z,101922.36
2018-09-24T01:43:53.889Z,101926.14
2018-09-24T01:46:22.390Z,101931.96
2018-09-24T01:48:57.515Z,101929.94
2018-09-24T01:51:37.994Z,101933.27
2018-09-24T01:54:07.449Z,101936.08
2018-09-24T01:56:36.141Z,101938.73
2018-09-24T01:59:04.719Z,101939.25
2018-09-24T02:01:33.430Z,101934.95
2018-09-24T02:04:01.937Z,101937.20
2018-09-24T02:06:30.440Z,101934.21
2018-09-24T02:08:59.061Z,101945.80
2018-09-24T02:11:28.122Z,101940.94
2018-09-24T02:13:57.150Z,101946.42
2018-09-24T02:16:25.795Z,101947.34
2018-09-24T02:19:00.054Z,101953.58
2018-09-24T02:21:28.757Z,101961.75
2018-09-24T02:24:02.929Z,101976.27
2018-09-24T02:26:31.482Z,101977.40
2018-09-24T02:29:02.070Z,101972.39
2018-09-24T02:31:35.199Z,101968.62
2018-09-24T02:34:04.498Z,101976.46
2018-09-24T02:36:33.039Z,101981.20
2018-09-24T02:39:01.583Z,101980.84
2018-09-24T02:41:30.070Z,101979.51
2018-09-24T02:43:59.037Z,101989.30
2018-09-24T02:46:27.678Z,101995.28
2018-09-24T02:49:01.895Z,101998.63
2018-09-24T02:51:31.301Z,102004.29
2018-09-24T02:53:59.853Z,102012.19
2018-09-24T02:56:28.345Z,102009.83
2018-09-24T02:58:57.578Z,102010.94
2018-09-24T03:01:32.023Z,102023.20
2018-09-24T03:04:01.208Z,102018.80
2018-09-24T03:06:35.108Z,102024.72
2018-09-24T03:09:05.001Z,102025.58
2018-09-24T03:11:33.846Z,102032.72
2018-09-24T03:14:02.329Z,102030.61
2018-09-24T03:16:30.857Z,102037.90
2018-09-24T03:19:00.897Z,102048.23
2018-09-24T03:21:30.168Z,102049.20
2018-09-24T03:23:59.579Z,102052.55
2018-09-24T03:26:29.127Z,102051.70
2018-09-24T03:28:57.707Z,102051.49
2018-09-24T03:31:26.901Z,102058.05
2018-09-24T03:33:55.493Z,102074.24
2018-09-24T03:36:24.039Z,102066.38
2018-09-24T03:38:53.063Z,102077.70
2018-09-24T03:41:21.780Z,102088.28
2018-09-24T03:43:50.430Z,102086.75
2018-09-24T03:46:18.983Z,102086.41
2018-09-24T03:48:48.223Z,102090.13
2018-09-24T03:51:16.876Z,102092.38
2018-09-24T03:53:46.043Z,102094.87
2018-09-24T03:56:14.583Z,102097.12
2018-09-24T03:58:43.123Z,102102.14
2018-09-24T04:01:11.843Z,102099.18
2018-09-24T04:03:40.425Z,102099.30
2018-09-24T04:06:14.343Z,102095.69
2018-09-24T04:08:48.172Z,102096.69
2018-09-24T04:11:22.301Z,102099.52
2018-09-24T04:13:56.114Z,102099.27
2018-09-24T04:16:29.833Z,102103.92
2018-09-24T04:19:07.254Z,102105.95
2018-09-24T04:21:41.065Z,102111.16
2018-09-24T04:24:14.955Z,102112.26
2018-09-24T04:26:48.703Z,102118.69
2018-09-24T04:36:34.941Z,102137.99
2018-09-24T04:39:08.801Z,102148.84
2018-09-24T04:41:43.215Z,102151.33
2018-09-24T04:44:17.620Z,102155.62
2018-09-24T04:46:51.752Z,102154.53
2018-09-24T04:49:25.576Z,102156.91
2018-09-24T04:51:59.362Z,102163.45
2018-09-24T04:54:34.335Z,102170.34
2018-09-24T04:57:07.961Z,102172.48
2018-09-24T04:59:41.768Z,102169.54
2018-09-24T05:02:16.138Z,102168.45
2018-09-24T05:04:49.886Z,102170.02
2018-09-24T05:07:23.737Z,102172.17
2018-09-24T05:09:58.047Z,102163.61
2018-09-24T05:12:31.734Z,102160.39
2018-09-24T05:15:05.509Z,102171.78
2018-09-24T05:17:40.063Z,102170.97
2018-09-24T05:20:14.590Z,102183.27
2018-09-24T05:22:48.461Z,102178.61
2018-09-24T05:25:22.329Z,102184.41
2018-09-24T05:27:56.169Z,102173.81
2018-09-24T05:30:29.912Z,102185.09
2018-09-24T05:33:03.899Z,102188.94
2018-09-24T05:35:38.416Z,102185.72
2018-09-24T05:38:12.322Z,102197.06
2018-09-24T05:40:46.074Z,102197.66
2018-09-24T05:43:20.009Z,102201.00
2018-09-24T05:45:53.891Z,102201.50
2018-09-24T05:48:28.439Z,102200.91
2018-09-24T05:51:02.844Z,102205.94
2018-09-24T05:53:36.466Z,102206.03
2018-09-24T05:56:10.175Z,102215.00
2018-09-24T05:58:43.952Z,102217.36
2018-09-24T06:01:17.816Z,102220.84
2018-09-24T06:03:51.780Z,102233.70
2018-09-24T06:06:25.743Z,102243.58
2018-09-24T06:08:59.655Z,102237.88
2018-09-24T06:11:34.050Z,102246.20
2018-09-24T06:14:07.789Z,102248.28
2018-09-24T06:16:41.535Z,102248.30
2018-09-24T06:19:16.270Z,102247.08
2018-09-24T06:21:50.176Z,102254.73
2018-09-24T06:24:23.998Z,102256.02
2018-09-24T06:26:58.308Z,102261.28
2018-09-24T06:29:32.698Z,102266.19
2018-09-24T06:32:07.043Z,102278.34
2018-09-24T06:34:40.753Z,102280.73
2018-09-24T06:37:14.461Z,102281.55
2018-09-24T06:39:48.234Z,102283.67
2018-09-24T06:42:22.117Z,102280.53
2018-09-24T06:44:56.612Z,102292.88
2018-09-24T06:47:31.074Z,102302.70
2018-09-24T06:50:05.019Z,102307.38
2018-09-24T06:52:39.423Z,102305.05
2018-09-24T06:55:13.925Z,102308.48
2018-09-24T06:57:47.514Z,102309.44
2018-09-24T07:00:21.597Z,102306.97
2018-09-24T07:02:55.312Z,102310.84
2018-09-24T07:05:29.168Z,102317.24
2018-09-24T07:08:02.950Z,102320.69
2018-09-24T07:10:37.045Z,102326.23
2018-09-24T07:13:10.854Z,102336.25
2018-09-24T07:15:44.631Z,102337.81
2018-09-24T07:18:18.455Z,102338.73
2018-09-24T07:20:52.131Z,102337.88
2018-09-24T07:23:25.829Z,102341.05
2018-09-24T07:25:59.558Z,102347.16
2018-09-24T07:28:34.691Z,102355.47
2018-09-24T07:31:08.414Z,102356.69
2018-09-24T07:33:42.217Z,102360.47
2018-09-24T07:36:15.914Z,102366.38
2018-09-24T07:38:49.694Z,102370.39
2018-09-24T07:41:24.279Z,102373.75
2018-09-24T07:43:58.183Z,102384.41
2018-09-24T07:46:32.111Z,102386.44
2018-09-24T07:49:06.334Z,102387.39
2018-09-24T07:51:40.125Z,102389.58
2018-09-24T07:54:14.221Z,102396.31
2018-09-24T07:56:48.124Z,102401.85
2018-09-24T07:59:22.738Z,102405.39
2018-09-24T08:01:57.318Z,102407.55
2018-09-24T08:04:31.486Z,102404.50
2018-09-24T08:07:05.433Z,102408.45
2018-09-24T08:09:39.298Z,102417.43
2018-09-24T08:12:13.009Z,102423.73
2018-09-24T08:14:47.209Z,102431.59
2018-09-24T08:17:21.134Z,102425.81
2018-09-24T08:19:54.891Z,102437.56
2018-09-24T08:22:28.862Z,102438.95
2018-09-24T08:25:03.756Z,102444.25
2018-09-24T08:27:37.642Z,102447.41
2018-09-24T08:30:11.789Z,102452.52
2018-09-24T08:32:45.731Z,102447.96
2018-09-24T08:35:20.302Z,102448.18
2018-09-24T08:37:54.049Z,102437.42
2018-09-24T08:40:27.951Z,102451.56
2018-09-24T08:43:02.414Z,102442.16
2018-09-24T08:45:36.280Z,102446.86
2018-09-24T08:48:11.043Z,102443.69
2018-09-24T08:50:44.932Z,102436.02
2018-09-24T08:53:19.074Z,102441.64
2018-09-24T08:55:52.824Z,102444.39
2018-09-24T08:58:26.796Z,102448.19
2018-09-24T09:01:00.565Z,102455.29
2018-09-24T09:03:34.288Z,102457.45
2018-09-24T09:06:08.041Z,102464.13
2018-09-24T09:08:42.603Z,102455.30
2018-09-24T09:11:16.194Z,102460.97
2018-09-24T09:13:49.967Z,102460.94
2018-09-24T09:16:23.782Z,102467.31
2018-09-24T09:18:58.222Z,102480.72
2018-09-24T09:21:32.341Z,102476.73
2018-09-24T09:24:06.072Z,102475.11
2018-09-24T09:26:39.999Z,102472.55
2018-09-24T09:29:13.757Z,102486.50
2018-09-24T09:31:48.482Z,102476.63
2018-09-24T09:34:22.200Z,102487.64
2018-09-24T09:36:57.870Z,102490.21
2018-09-24T09:39:31.502Z,102489.89
2018-09-24T09:42:05.722Z,102490.21
2018-09-24T09:44:39.567Z,102497.20
2018-09-24T09:47:13.414Z,102500.75
2018-09-24T09:49:47.318Z,102497.91
2018-09-24T09:52:21.051Z,102494.27
2018-09-24T09:54:54.758Z,102498.83
2018-09-24T09:57:28.529Z,102501.72
2018-09-24T10:00:02.275Z,102500.83
2018-09-24T10:02:36.248Z,102499.58
2018-09-24T10:05:10.672Z,102492.81
2018-09-24T10:07:45.171Z,102494.59
2018-09-24T10:10:19.403Z,102497.55
2018-09-24T10:12:54.226Z,102502.25
2018-09-24T10:15:28.160Z,102494.27
2018-09-24T10:18:01.966Z,102493.31
2018-09-24T10:20:35.879Z,102485.27
2018-09-24T10:23:10.287Z,102505.40
2018-09-24T10:25:44.023Z,102510.86
2018-09-24T10:28:18.127Z,102502.55
2018-09-24T10:30:52.270Z,102521.10
2018-09-24T10:33:27.791Z,102527.55
2018-09-24T10:36:01.719Z,102532.95
2018-09-24T10:38:35.622Z,102533.07
2018-09-24T10:41:09.884Z,102551.33
2018-09-24T10:43:44.574Z,102548.61
2018-09-24T10:46:18.391Z,102542.66
2018-09-24T10:48:52.115Z,102530.16
2018-09-24T10:51:25.921Z,102537.09
2018-09-24T10:53:59.771Z,102545.52
2018-09-24T10:56:33.572Z,102535.70
2018-09-24T10:59:08.022Z,102543.06
2018-09-24T11:01:41.764Z,102537.30
2018-09-24T11:04:15.455Z,102543.59
2018-09-24T11:06:49.174Z,102539.02
2018-09-24T11:09:23.352Z,102535.99
2018-09-24T11:11:57.197Z,102535.78
2018-09-24T11:14:31.598Z,102534.98
2018-09-24T11:17:05.914Z,102545.20
2018-09-24T11:19:39.575Z,102567.50
2018-09-24T11:22:14.035Z,102578.41
2018-09-24T11:24:48.235Z,102570.06
2018-09-24T11:27:22.544Z,102567.83
2018-09-24T11:29:56.288Z,102561.92
2018-09-24T11:32:30.147Z,102557.88
2018-09-24T11:35:03.998Z,102554.59
2018-09-24T11:37:38.115Z,102552.66
2018-09-24T11:40:11.767Z,102560.17
2018-09-24T11:42:45.579Z,102551.54
2018-09-24T11:45:19.327Z,102552.02
2018-09-24T11:47:52.993Z,102554.95
2018-09-24T11:50:26.903Z,102551.41
2018-09-24T11:53:00.972Z,102552.70
2018-09-24T11:55:34.804Z,102547.41
2018-09-24T11:58:09.146Z,102546.81
2018-09-24T12:00:43.176Z,102531.93
2018-09-24T12:03:16.937Z,102549.54
2018-09-24T12:05:51.300Z,102562.43
2018-09-24T12:08:25.157Z,102559.64
2018-09-24T12:10:59.856Z,102575.52
2018-09-24T12:13:33.579Z,102582.67
2018-09-24T12:16:07.614Z,102582.31
2018-09-24T12:18:41.297Z,102577.48
2018-09-24T12:21:15.005Z,102574.70
2018-09-24T12:23:48.652Z,102574.89
2018-09-24T12:26:22.956Z,102565.44
2018-09-24T12:28:56.718Z,102568.91
2018-09-24T12:31:30.467Z,102556.94
2018-09-24T12:34:04.170Z,102568.23
2018-09-24T12:36:38.085Z,102568.05
2018-09-24T12:39:13.179Z,102571.10
2018-09-24T12:41:46.970Z,102577.27
2018-09-24T12:44:21.023Z,102570.05
2018-09-24T12:46:54.851Z,102561.88
2018-09-24T12:49:28.643Z,102558.47
2018-09-24T12:52:02.454Z,102556.72
2018-09-24T12:54:36.052Z,102553.81
2018-09-24T12:57:09.779Z,102559.37
2018-09-24T12:59:43.587Z,102568.51
2018-09-24T13:02:17.385Z,102573.63
2018-09-24T13:04:51.175Z,102586.80
2018-09-24T13:07:24.991Z,102597.67
2018-09-24T13:09:58.798Z,102585.95
2018-09-24T13:12:32.564Z,102589.41
2018-09-24T13:15:06.300Z,102587.63
2018-09-24T13:17:40.144Z,102582.19
2018-09-24T13:20:13.795Z,102585.80
2018-09-24T13:22:47.550Z,102584.30
2018-09-24T13:25:21.457Z,102586.42
2018-09-24T13:27:55.367Z,102600.36
2018-09-24T13:30:29.130Z,102618.34
2018-09-24T13:33:02.875Z,102632.20
2018-09-24T13:35:36.796Z,102628.05
2018-09-24T13:38:10.450Z,102610.78
2018-09-24T13:40:44.194Z,102612.13
2018-09-24T13:43:18.375Z,102608.20
2018-09-24T13:45:52.195Z,102604.59
2018-09-24T13:48:25.952Z,102602.92
2018-09-24T13:50:59.682Z,102597.98
2018-09-24T13:53:33.394Z,102600.28
2018-09-24T13:56:07.075Z,102587.06
2018-09-24T13:58:40.822Z,102605.30
2018-09-24T14:01:14.632Z,102605.32
2018-09-24T14:03:48.383Z,102603.13
2018-09-24T14:06:22.096Z,102608.27
2018-09-24T14:08:55.884Z,102609.81
2018-09-24T14:11:29.887Z,102607.85
2018-09-24T14:14:03.788Z,102611.62
2018-09-24T14:16:37.616Z,102601.82
2018-09-24T14:19:11.655Z,102607.58
2018-09-24T14:21:45.287Z,102609.80
2018-09-24T14:24:19.610Z,102603.22
2018-09-24T14:26:53.522Z,102605.63
2018-09-24T14:29:27.466Z,102617.20
2018-09-24T14:32:01.271Z,102612.73
2018-09-24T14:34:35.146Z,102619.02
2018-09-24T14:37:08.698Z,102609.83
2018-09-24T14:39:42.535Z,102615.37
2018-09-24T14:42:16.436Z,102617.59
2018-09-24T14:44:50.166Z,102617.15
2018-09-24T14:47:23.880Z,102626.63
2018-09-24T14:49:57.818Z,102629.45
2018-09-24T14:52:32.695Z,102628.15
2018-09-24T14:55:06.525Z,102632.98
2018-09-24T14:57:40.388Z,102624.44
2018-09-24T15:00:14.006Z,102639.08
2018-09-24T15:02:47.868Z,102643.81
2018-09-24T15:05:21.733Z,102630.73
2018-09-24T15:07:55.374Z,102635.33
2018-09-24T15:10:29.266Z,102631.88
2018-09-24T15:13:03.014Z,102635.33
2018-09-24T15:15:36.714Z,102635.74
2018-09-24T15:18:10.576Z,102647.09
2018-09-24T15:20:44.259Z,102631.69
2018-09-24T15:23:18.080Z,102633.47
2018-09-24T15:25:51.812Z,102621.63
2018-09-24T15:28:25.711Z,102631.12
2018-09-24T15:30:59.556Z,102653.73
2018-09-24T15:33:33.196Z,102657.80
2018-09-24T15:36:07.151Z,102665.53
2018-09-24T15:38:40.927Z,102648.05
2018-09-24T15:41:14.943Z,102654.17
2018-09-24T15:43:48.904Z,102649.81
2018-09-24T15:46:22.742Z,102655.95
2018-09-24T15:48:56.597Z,102666.20
2018-09-24T15:51:30.491Z,102669.19
2018-09-24T15:54:04.392Z,102667.04
2018-09-24T15:56:38.275Z,102678.73
2018-09-24T15:59:12.521Z,102668.20
2018-09-24T16:01:46.288Z,102668.30
2018-09-24T16:04:20.051Z,102667.75
2018-09-24T16:06:54.254Z,102667.04
2018-09-24T16:09:28.131Z,102678.54
2018-09-24T16:12:01.989Z,102695.95
2018-09-24T16:14:35.852Z,102766.42
2018-09-24T16:17:09.659Z,102730.66
2018-09-24T16:19:43.375Z,102731.39
2018-09-24T16:22:17.159Z,102715.86
2018-09-24T16:24:50.923Z,102708.63
2018-09-24T16:27:24.736Z,102701.08
2018-09-24T16:29:58.543Z,102704.07
2018-09-24T16:32:33.349Z,102698.86
2018-09-24T16:35:06.959Z,102704.14
2018-09-24T16:37:40.895Z,102700.41
2018-09-24T16:40:14.726Z,102703.73
2018-09-24T16:42:48.534Z,102695.38
2018-09-24T16:45:22.202Z,102703.16
2018-09-24T16:47:56.099Z,102704.60
2018-09-24T16:50:30.008Z,102705.19
2018-09-24T16:53:03.955Z,102709.45
2018-09-24T16:55:37.863Z,102710.03
2018-09-24T16:58:11.737Z,102716.17
2018-09-24T17:00:45.690Z,102714.25
2018-09-24T17:03:19.681Z,102716.34
2018-09-24T17:05:53.530Z,102715.30
2018-09-24T17:08:27.267Z,102718.09
2018-09-24T17:11:01.059Z,102719.20
2018-09-24T17:13:34.874Z,102734.22
2018-09-24T17:16:08.549Z,102727.30
2018-09-24T17:18:42.511Z,102731.37
2018-09-24T17:21:16.320Z,102731.71
2018-09-24T17:23:50.165Z,102735.41
2018-09-24T17:26:24.091Z,102731.12
2018-09-24T17:28:57.969Z,102736.64
2018-09-24T17:31:31.803Z,102740.81
2018-09-24T17:34:05.580Z,102736.05
2018-09-24T17:36:39.418Z,102742.03
2018-09-24T17:39:14.123Z,102749.31
2018-09-24T17:41:47.855Z,102749.81
2018-09-24T17:44:21.624Z,102752.78
2018-09-24T17:46:55.498Z,102753.88
2018-09-24T17:49:29.388Z,102762.73
2018-09-24T17:52:03.349Z,102762.84
2018-09-24T17:54:37.052Z,102767.77
2018-09-24T17:57:10.842Z,102761.87
2018-09-24T17:59:44.712Z,102764.98
2018-09-24T18:02:18.645Z,102771.56
2018-09-24T18:04:52.347Z,102778.36
2018-09-24T18:07:26.246Z,102780.65
2018-09-24T18:10:00.162Z,102782.44
2018-09-24T18:12:34.262Z,102791.88
2018-09-24T18:15:08.147Z,102798.33
2018-09-24T18:17:42.694Z,102799.75
2018-09-24T18:20:17.343Z,102812.42
2018-09-24T18:22:55.742Z,102798.30
2018-09-24T18:25:29.726Z,102816.26
2018-09-24T18:28:03.591Z,102814.72
2018-09-24T18:30:37.515Z,102815.78
2018-09-24T18:33:11.711Z,102814.94
2018-09-24T18:35:45.480Z,102822.23
2018-09-24T18:38:19.195Z,102822.57
2018-09-24T18:40:53.256Z,102827.73
2018-09-24T18:43:27.394Z,102829.63
2018-09-24T18:46:01.326Z,102825.81
2018-09-24T18:48:35.117Z,102826.67
2018-09-24T18:51:09.111Z,102831.59
2018-09-24T18:53:43.160Z,102842.95
2018-09-24T18:56:17.133Z,102843.33
2018-09-24T18:58:50.995Z,102828.96
2018-09-24T19:01:25.069Z,102830.63
2018-09-24T19:03:59.745Z,102825.27
2018-09-24T19:06:33.790Z,102832.92
2018-09-24T19:09:07.847Z,102825.98
2018-09-24T19:11:42.107Z,102835.09
2018-09-24T19:14:17.286Z,102837.43
2018-09-24T19:16:52.092Z,102849.88
2018-09-24T19:19:26.006Z,102850.48
2018-09-24T19:21:59.912Z,102854.41
2018-09-24T19:24:33.835Z,102853.44
2018-09-24T19:27:07.655Z,102858.31
2018-09-24T19:29:41.758Z,102857.11
2018-09-24T19:32:15.508Z,102863.19
2018-09-24T19:34:49.334Z,102866.27
2018-09-24T19:37:23.238Z,102863.89
2018-09-24T19:39:57.019Z,102864.41
2018-09-24T19:42:30.864Z,102865.33
2018-09-24T19:45:05.341Z,102867.69
2018-09-24T19:47:39.202Z,102867.13
2018-09-24T19:50:13.506Z,102869.89
2018-09-24T19:52:47.170Z,102870.17
2018-09-24T19:55:21.152Z,102873.05
2018-09-24T19:57:54.962Z,102870.16
2018-09-24T20:00:29.135Z,102875.08
2018-09-24T20:03:02.836Z,102877.08
2018-09-24T20:05:36.668Z,102876.08
2018-09-24T20:08:10.615Z,102881.23
2018-09-24T20:10:44.251Z,102879.28
2018-09-24T20:13:18.198Z,102882.23
2018-09-24T20:15:52.707Z,102880.03
2018-09-24T20:18:26.497Z,102879.92
2018-09-24T20:21:01.569Z,102882.75
2018-09-24T20:23:35.290Z,102884.84
2018-09-24T20:26:08.924Z,102893.66
2018-09-24T20:28:42.769Z,102902.28
2018-09-24T20:31:17.125Z,102906.15
2018-09-24T20:33:51.974Z,102906.34
2018-09-24T20:36:25.854Z,102906.87
2018-09-24T20:38:59.726Z,102900.17
2018-09-24T20:41:33.638Z,102903.83
2018-09-24T20:44:07.770Z,102909.64
2018-09-24T20:46:41.822Z,102916.54
2018-09-24T20:49:16.480Z,102922.23
2018-09-24T20:51:50.393Z,102921.19
2018-09-24T20:54:24.214Z,102920.26
2018-09-24T20:56:58.003Z,102926.33
2018-09-24T20:59:32.306Z,102929.66
2018-09-24T21:02:06.071Z,102933.09
2018-09-24T21:04:39.981Z,102942.52
2018-09-24T21:07:13.818Z,102947.27
2018-09-24T21:09:47.681Z,102943.77
2018-09-24T21:12:21.602Z,102949.92
2018-09-24T21:14:55.617Z,102952.24
2018-09-24T21:17:30.519Z,102951.94
2018-09-24T21:20:04.367Z,102957.50
2018-09-24T21:22:38.094Z,102958.43
2018-09-24T21:25:12.004Z,102959.16
2018-09-24T21:27:45.635Z,102960.39
2018-09-24T21:30:19.430Z,102950.92
2018-09-24T21:32:53.234Z,102950.54
2018-09-24T21:35:26.996Z,102958.51
2018-09-24T21:38:00.734Z,102962.77
2018-09-24T21:40:34.541Z,102960.05
2018-09-24T21:43:08.378Z,102957.73
2018-09-24T21:45:42.898Z,102965.78
2018-09-24T21:48:17.588Z,102960.29
2018-09-24T21:50:51.278Z,102961.42
2018-09-24T21:53:25.006Z,102957.15
2018-09-24T21:55:58.918Z,102963.16
2018-09-24T21:58:32.863Z,102973.96
2018-09-24T22:01:06.811Z,102969.27
2018-09-24T22:03:40.548Z,102970.86
2018-09-24T22:06:14.362Z,102969.65
2018-09-24T22:08:47.969Z,102972.00
2018-09-24T22:11:22.207Z,102978.59
2018-09-24T22:13:56.635Z,102982.87
2018-09-24T22:16:30.367Z,102993.48
2018-09-24T22:19:04.246Z,102994.10
2018-09-24T22:21:38.050Z,102981.56
2018-09-24T22:24:11.980Z,102987.27
2018-09-24T22:26:45.810Z,102993.88
2018-09-24T22:29:19.514Z,102996.13
2018-09-24T22:31:53.438Z,102996.30
2018-09-24T22:34:27.170Z,102989.09
2018-09-24T22:37:01.015Z,102979.64
2018-09-24T22:39:34.691Z,102970.80
2018-09-24T22:42:08.501Z,102982.63
2018-09-24T22:44:43.382Z,102986.73
2018-09-24T22:47:17.177Z,102994.37
2018-09-24T22:49:50.997Z,102995.26
2018-09-24T22:52:24.680Z,102998.15
2018-09-24T22:54:58.631Z,103002.69
2018-09-24T22:57:32.335Z,103006.86
2018-09-24T23:00:06.118Z,103006.65
2018-09-24T23:02:39.829Z,103010.57
2018-09-24T23:05:13.582Z,103011.94
2018-09-24T23:07:47.522Z,103010.29
2018-09-24T23:10:21.323Z,103014.18
2018-09-24T23:12:55.077Z,103015.55
2018-09-24T23:15:29.374Z,103016.63
2018-09-24T23:18:03.068Z,103013.47
2018-09-24T23:20:36.843Z,103016.70
2018-09-24T23:23:10.698Z,103018.62
2018-09-24T23:25:44.675Z,103012.20
2018-09-24T23:28:18.604Z,103012.73
2018-09-24T23:30:52.336Z,103013.00
2018-09-24T23:33:26.095Z,103014.19
2018-09-24T23:36:00.074Z,103018.88
2018-09-24T23:38:33.763Z,103017.95
2018-09-24T23:41:08.524Z,103016.90
2018-09-24T23:43:42.334Z,103012.12
2018-09-24T23:46:16.260Z,103013.78
2018-09-24T23:48:50.036Z,103012.12
2018-09-24T23:51:24.274Z,103013.53
2018-09-24T23:53:58.194Z,103015.91
2018-09-24T23:56:31.884Z,103009.84
2018-09-24T23:59:05.716Z,103020.77
